Time;durP1;ratioP1;P1;durP2;ratioP2;P2;SDS_P1;SDS_P2;PMS_P1;PMS_P2;Temp;Humidity;BMP_temperature;BMP_pressure;BME280_temperature;BME280_humidity;BME280_pressure;Samples;Min_cycle;Max_cycle;Signal;HPM_P1;HPM_P2
2023/03/13 00:01:52;;;;;;;23.37;10.70;;;11.90;99.90;;;;;;5094949;28;20574;-71
2023/03/13 00:04:19;;;;;;;15.93;10.47;;;11.90;99.90;;;;;;5096518;28;20464;-71
2023/03/13 00:06:46;;;;;;;11.37;10.03;;;11.90;99.90;;;;;;5091483;28;20489;-72
2023/03/13 00:09:16;;;;;;;18.83;10.17;;;11.80;99.90;;;;;;5087929;28;20545;-71
2023/03/13 00:11:43;;;;;;;19.60;9.90;;;11.90;99.90;;;;;;5088737;28;20496;-71
2023/03/13 00:14:10;;;;;;;14.23;9.90;;;11.80;99.90;;;;;;5086871;28;20466;-72
2023/03/13 00:16:38;;;;;;;27.50;9.73;;;11.80;99.90;;;;;;5083048;28;20473;-72
2023/03/13 00:19:06;;;;;;;20.63;8.90;;;11.70;99.90;;;;;;5091281;28;20556;-71
2023/03/13 00:21:33;;;;;;;23.10;11.10;;;11.70;99.90;;;;;;5093675;28;20571;-70
2023/03/13 00:24:00;;;;;;;18.53;13.93;;;11.60;99.90;;;;;;5094660;28;20551;-70
2023/03/13 00:26:30;;;;;;;22.33;14.23;;;11.50;99.90;;;;;;5091214;28;20476;-69
2023/03/13 00:28:57;;;;;;;26.33;15.57;;;11.40;99.90;;;;;;5090076;28;20494;-70
2023/03/13 00:31:26;;;;;;;26.30;15.20;;;11.30;99.90;;;;;;5087183;28;20502;-69
2023/03/13 00:33:54;;;;;;;16.87;14.43;;;11.20;99.90;;;;;;5087252;28;20961;-69
2023/03/13 00:36:22;;;;;;;21.97;12.87;;;11.20;99.90;;;;;;5091465;28;20527;-70
2023/03/13 00:38:50;;;;;;;16.90;12.27;;;11.10;99.90;;;;;;5096212;28;20785;-71
2023/03/13 00:41:19;;;;;;;14.83;12.00;;;11.10;99.90;;;;;;5090412;28;20519;-70
2023/03/13 00:43:48;;;;;;;18.40;11.73;;;11.10;99.90;;;;;;5090270;28;20516;-70
2023/03/13 00:46:17;;;;;;;11.57;10.37;;;11.10;99.90;;;;;;5089323;28;20469;-70
2023/03/13 00:48:44;;;;;;;15.73;10.87;;;11.00;99.90;;;;;;5085955;28;21082;-69
2023/03/13 00:51:11;;;;;;;14.87;11.07;;;11.00;99.90;;;;;;5088492;28;20587;-71
2023/03/13 00:53:38;;;;;;;31.60;12.20;;;11.00;99.90;;;;;;5095871;28;20503;-71
2023/03/13 00:56:07;;;;;;;19.83;10.43;;;11.00;99.90;;;;;;5089714;28;20969;-70
2023/03/13 00:58:35;;;;;;;26.20;9.80;;;11.00;99.90;;;;;;5084431;28;20461;-70
2023/03/13 01:01:11;;;;;;;17.63;9.00;;;11.10;99.90;;;;;;5089585;28;21031;-70
2023/03/13 01:03:40;;;;;;;24.83;9.40;;;11.10;99.90;;;;;;5088845;28;21338;-70
2023/03/13 01:06:09;;;;;;;24.93;8.63;;;11.10;99.90;;;;;;5089637;28;20466;-70
2023/03/13 01:08:36;;;;;;;15.93;8.07;;;11.10;99.90;;;;;;5097497;28;20484;-70
2023/03/13 01:11:05;;;;;;;14.47;7.37;;;11.20;99.90;;;;;;5090137;28;20468;-69
2023/03/13 01:13:33;;;;;;;12.67;7.00;;;11.20;99.90;;;;;;5091855;28;20462;-70
2023/03/13 01:16:03;;;;;;;11.07;6.20;;;11.30;99.90;;;;;;5097841;28;20503;-71
2023/03/13 01:18:31;;;;;;;9.57;6.20;;;11.30;99.90;;;;;;5091961;28;20473;-71
2023/03/13 01:20:58;;;;;;;15.80;7.23;;;11.30;99.90;;;;;;5100793;28;20461;-70
2023/03/13 01:23:26;;;;;;;15.70;6.00;;;11.30;99.90;;;;;;5098826;28;20510;-70
2023/03/13 01:25:54;;;;;;;10.27;7.37;;;11.30;99.90;;;;;;5091204;28;20473;-69
2023/03/13 01:28:21;;;;;;;16.07;14.40;;;11.30;99.90;;;;;;5092987;28;20999;-69
2023/03/13 01:30:48;;;;;;;17.20;15.97;;;11.20;99.90;;;;;;5090822;28;20465;-69
2023/03/13 01:33:15;;;;;;;18.13;16.40;;;11.10;99.90;;;;;;5097449;28;20519;-69
2023/03/13 01:35:44;;;;;;;20.40;16.10;;;11.00;99.90;;;;;;5097037;28;20550;-70
2023/03/13 01:38:11;;;;;;;18.77;17.00;;;11.00;99.90;;;;;;5089336;28;20462;-71
2023/03/13 01:40:42;;;;;;;16.07;14.60;;;10.90;99.90;;;;;;5089337;28;20466;-72
2023/03/13 01:43:20;;;;;;;15.83;14.20;;;10.90;99.90;;;;;;5092261;28;20914;-71
2023/03/13 01:45:57;;;;;;;15.87;14.43;;;10.80;99.90;;;;;;5098848;28;20461;-71
2023/03/13 01:48:30;;;;;;;17.60;14.53;;;10.80;99.90;;;;;;5098429;28;20488;-70
2023/03/13 01:51:01;;;;;;;17.90;14.13;;;10.80;99.90;;;;;;5086500;28;20454;-70
2023/03/13 01:53:30;;;;;;;16.60;13.90;;;10.70;99.90;;;;;;5096480;28;20948;-71
2023/03/13 01:55:59;;;;;;;16.90;14.40;;;10.70;99.90;;;;;;5092343;28;20473;-70
2023/03/13 01:58:28;;;;;;;21.13;13.13;;;10.70;99.90;;;;;;5092299;28;20863;-71
2023/03/13 02:00:55;;;;;;;14.33;13.03;;;10.80;99.90;;;;;;5091681;28;20465;-70
2023/03/13 02:03:23;;;;;;;13.83;12.57;;;10.80;99.90;;;;;;5089410;28;20809;-70
2023/03/13 02:05:51;;;;;;;13.43;12.30;;;10.70;99.90;;;;;;5090155;28;20470;-70
2023/03/13 02:08:24;;;;;;;11.80;10.90;;;10.80;99.90;;;;;;5093732;28;20500;-71
2023/03/13 02:10:55;;;;;;;19.90;11.40;;;10.80;99.90;;;;;;5095506;28;20457;-71
2023/03/13 02:13:22;;;;;;;12.03;10.83;;;10.80;99.90;;;;;;5089193;28;20764;-72
2023/03/13 02:15:49;;;;;;;13.50;10.97;;;10.80;99.90;;;;;;5098648;28;20457;-70
2023/03/13 02:18:16;;;;;;;10.97;10.17;;;10.80;99.90;;;;;;5094900;28;20469;-71
2023/03/13 02:20:43;;;;;;;10.63;9.50;;;10.80;99.90;;;;;;5091291;28;20553;-71
2023/03/13 02:23:19;;;;;;;9.13;8.47;;;10.80;99.90;;;;;;5090666;28;20485;-70
2023/03/13 02:25:49;;;;;;;9.20;8.33;;;10.80;99.90;;;;;;5095485;28;20483;-73
2023/03/13 02:28:19;;;;;;;8.57;7.60;;;10.80;99.90;;;;;;5088432;28;20490;-72
2023/03/13 02:30:48;;;;;;;9.03;8.20;;;10.90;99.90;;;;;;5098641;28;20561;-72
2023/03/13 02:33:16;;;;;;;8.00;7.30;;;10.90;99.90;;;;;;5096779;28;20483;-71
2023/03/13 02:35:44;;;;;;;8.67;7.80;;;10.90;99.90;;;;;;5094470;28;20458;-70
2023/03/13 02:38:16;;;;;;;9.80;7.50;;;10.90;99.90;;;;;;5090060;28;20466;-71
2023/03/13 02:40:46;;;;;;;8.03;7.30;;;10.90;99.90;;;;;;5091620;28;20465;-71
2023/03/13 02:43:18;;;;;;;7.87;7.17;;;10.90;99.90;;;;;;5089971;28;20568;-70
2023/03/13 02:46:03;;;;;;;7.33;6.80;;;11.00;99.90;;;;;;5088319;28;20543;-72
2023/03/13 02:48:33;;;;;;;7.07;6.77;;;11.00;99.90;;;;;;5091273;28;20981;-72
2023/03/13 02:51:02;;;;;;;6.97;6.50;;;11.10;99.90;;;;;;5098129;28;20597;-73
2023/03/13 02:53:28;;;;;;;6.53;6.07;;;11.10;99.90;;;;;;5093875;28;20457;-70
2023/03/13 02:55:55;;;;;;;7.00;6.60;;;11.20;99.90;;;;;;5093091;28;20892;-71
2023/03/13 02:58:25;;;;;;;6.50;6.00;;;11.20;99.90;;;;;;5087776;28;20466;-71
2023/03/13 03:00:52;;;;;;;6.50;5.90;;;11.20;99.90;;;;;;5088125;28;20457;-71
2023/03/13 03:03:19;;;;;;;6.70;6.33;;;11.20;99.90;;;;;;5089857;28;20540;-71
2023/03/13 03:05:45;;;;;;;6.37;6.07;;;11.20;99.90;;;;;;5093883;28;20818;-71
2023/03/13 03:08:12;;;;;;;5.70;5.30;;;11.30;99.90;;;;;;5093596;28;21041;-71
2023/03/13 03:10:39;;;;;;;6.27;5.97;;;11.30;99.90;;;;;;5088300;28;20808;-72
2023/03/13 03:13:06;;;;;;;6.30;6.00;;;11.30;99.90;;;;;;5091673;28;20462;-71
2023/03/13 03:15:34;;;;;;;5.83;5.33;;;11.40;99.90;;;;;;5091093;28;20445;-71
2023/03/13 03:18:01;;;;;;;6.70;6.10;;;11.40;99.90;;;;;;5095753;28;20804;-71
2023/03/13 03:20:28;;;;;;;6.13;5.93;;;11.50;99.90;;;;;;5092812;28;20466;-71
2023/03/13 03:22:55;;;;;;;6.80;6.13;;;11.50;99.90;;;;;;5091116;28;20819;-71
2023/03/13 03:25:22;;;;;;;5.47;5.07;;;11.50;99.90;;;;;;5094931;28;20465;-72
2023/03/13 03:27:49;;;;;;;5.57;5.03;;;11.50;99.90;;;;;;5087270;28;20504;-73
2023/03/13 03:30:16;;;;;;;5.83;5.53;;;11.60;99.90;;;;;;5098305;28;20749;-72
2023/03/13 03:32:44;;;;;;;5.87;5.47;;;11.60;99.90;;;;;;5091307;28;20488;-71
2023/03/13 03:35:11;;;;;;;5.07;4.87;;;11.60;99.90;;;;;;5086541;28;20454;-71
2023/03/13 03:37:38;;;;;;;5.00;4.70;;;11.60;99.90;;;;;;5090490;28;20831;-72
2023/03/13 03:40:06;;;;;;;5.00;4.70;;;11.70;99.90;;;;;;5093930;28;20466;-71
2023/03/13 03:42:32;;;;;;;4.40;4.10;;;11.70;99.90;;;;;;5095195;28;20568;-72
2023/03/13 03:45:00;;;;;;;4.57;4.13;;;11.80;99.90;;;;;;5088437;28;20474;-70
2023/03/13 03:47:26;;;;;;;4.13;3.73;;;11.80;99.90;;;;;;5088437;28;20516;-71
2023/03/13 03:49:54;;;;;;;3.87;3.67;;;11.90;99.90;;;;;;5085821;28;20493;-71
2023/03/13 03:52:21;;;;;;;4.20;3.70;;;11.90;99.90;;;;;;5097974;28;20470;-71
2023/03/13 03:54:48;;;;;;;4.23;3.83;;;11.90;99.90;;;;;;5094983;28;20462;-72
2023/03/13 03:57:14;;;;;;;3.83;3.63;;;12.00;99.90;;;;;;5096193;28;20461;-74
2023/03/13 03:59:41;;;;;;;4.10;3.80;;;12.00;99.90;;;;;;5092434;28;20965;-71
2023/03/13 04:02:08;;;;;;;3.53;3.37;;;12.10;99.90;;;;;;5086590;28;20472;-72
2023/03/13 04:04:35;;;;;;;3.57;3.27;;;12.10;99.90;;;;;;5092062;28;20978;-71
2023/03/13 04:07:04;;;;;;;3.47;3.27;;;12.10;99.90;;;;;;5091052;28;20465;-70
2023/03/13 04:09:31;;;;;;;4.50;4.20;;;12.20;99.90;;;;;;5094960;28;20496;-72
2023/03/13 04:11:58;;;;;;;3.87;3.57;;;12.20;99.90;;;;;;5094078;28;20542;-71
2023/03/13 04:14:26;;;;;;;3.50;3.30;;;12.20;99.90;;;;;;5090299;28;20533;-72
2023/03/13 04:16:53;;;;;;;3.60;3.40;;;12.20;99.90;;;;;;5089484;28;20864;-70
2023/03/13 04:19:20;;;;;;;3.70;3.37;;;12.30;99.90;;;;;;5095627;28;20473;-71
2023/03/13 04:21:47;;;;;;;3.40;3.20;;;12.30;99.90;;;;;;5086380;28;20481;-70
2023/03/13 04:24:15;;;;;;;3.20;3.10;;;12.30;99.90;;;;;;5098691;28;20462;-71
2023/03/13 04:26:41;;;;;;;3.37;3.17;;;12.30;99.90;;;;;;5094844;28;20522;-71
2023/03/13 04:29:09;;;;;;;4.20;3.50;;;12.40;99.90;;;;;;5091761;28;21024;-70
2023/03/13 04:31:36;;;;;;;3.60;3.40;;;12.40;99.90;;;;;;5090720;28;20545;-70
2023/03/13 04:34:03;;;;;;;3.17;3.00;;;12.40;99.90;;;;;;5094605;28;20477;-72
2023/03/13 04:36:29;;;;;;;3.23;3.10;;;12.50;99.90;;;;;;5093410;28;20461;-70
2023/03/13 04:38:56;;;;;;;3.50;3.20;;;12.50;99.90;;;;;;5088144;28;20462;-70
2023/03/13 04:41:24;;;;;;;2.60;2.40;;;12.50;99.90;;;;;;5089576;28;20457;-70
2023/03/13 04:43:51;;;;;;;3.87;2.70;;;12.60;99.90;;;;;;5093009;28;20992;-72
2023/03/13 04:46:18;;;;;;;3.80;3.50;;;12.50;99.90;;;;;;5096031;28;20473;-70
2023/03/13 04:48:45;;;;;;;3.43;3.17;;;12.60;99.90;;;;;;5093431;28;20490;-71
2023/03/13 04:51:12;;;;;;;3.93;3.63;;;12.60;99.90;;;;;;5092428;28;20844;-71
2023/03/13 04:53:39;;;;;;;5.80;3.00;;;12.70;99.90;;;;;;5101618;28;20469;-70
2023/03/13 04:56:06;;;;;;;3.70;3.50;;;12.60;99.90;;;;;;5095421;28;20488;-71
2023/03/13 04:58:35;;;;;;;3.80;3.50;;;12.70;99.90;;;;;;5099270;27;20470;-70
2023/03/13 05:01:02;;;;;;;3.63;3.43;;;12.70;99.90;;;;;;5095011;28;20542;-70
2023/03/13 05:03:29;;;;;;;5.00;3.87;;;12.70;99.90;;;;;;5098658;28;20806;-70
2023/03/13 05:05:56;;;;;;;4.20;3.27;;;12.70;99.90;;;;;;5097061;28;21003;-69
2023/03/13 05:08:23;;;;;;;4.30;4.00;;;12.70;99.90;;;;;;5093599;28;20685;-71
2023/03/13 05:10:50;;;;;;;3.87;3.37;;;12.70;99.90;;;;;;5097552;28;20951;-70
2023/03/13 05:13:16;;;;;;;4.57;4.17;;;12.70;99.90;;;;;;5088863;28;20671;-70
2023/03/13 05:15:45;;;;;;;3.70;3.50;;;12.70;99.90;;;;;;5100707;28;20463;-72
2023/03/13 05:18:12;;;;;;;3.90;3.67;;;12.80;99.90;;;;;;5103738;28;20457;-70
2023/03/13 05:20:39;;;;;;;5.13;3.70;;;12.80;99.90;;;;;;5097109;28;20583;-71
2023/03/13 05:23:06;;;;;;;8.30;3.90;;;12.80;99.90;;;;;;5097739;28;20485;-72
2023/03/13 05:25:33;;;;;;;5.80;4.23;;;12.90;99.90;;;;;;5093593;28;20473;-70
2023/03/13 05:28:00;;;;;;;5.40;4.10;;;12.90;99.90;;;;;;5098472;28;20577;-70
2023/03/13 05:30:27;;;;;;;4.37;3.90;;;12.90;99.90;;;;;;5098319;28;20486;-72
2023/03/13 05:32:56;;;;;;;4.17;3.87;;;12.90;99.90;;;;;;5094721;28;20485;-72
2023/03/13 05:35:23;;;;;;;4.10;3.70;;;12.90;99.90;;;;;;5093313;28;20454;-72
2023/03/13 05:37:49;;;;;;;4.50;4.10;;;12.90;99.90;;;;;;5091586;28;20465;-72
2023/03/13 05:40:16;;;;;;;5.57;4.43;;;12.90;99.90;;;;;;5093874;28;20465;-72
2023/03/13 05:42:44;;;;;;;4.90;3.87;;;13.00;99.90;;;;;;5090580;28;20668;-70
2023/03/13 05:45:11;;;;;;;4.53;3.97;;;13.00;99.90;;;;;;5100844;28;20488;-70
2023/03/13 05:47:39;;;;;;;4.60;4.10;;;13.00;99.90;;;;;;5093065;28;20741;-72
2023/03/13 05:50:08;;;;;;;4.40;4.00;;;13.10;99.90;;;;;;5087127;28;20513;-70
2023/03/13 05:52:35;;;;;;;4.73;4.30;;;13.00;99.90;;;;;;5087668;28;20473;-70
2023/03/13 05:55:02;;;;;;;5.23;4.80;;;13.10;99.90;;;;;;5097102;28;20466;-72
2023/03/13 05:57:29;;;;;;;3.90;3.70;;;13.10;99.90;;;;;;5093814;28;20821;-72
2023/03/13 05:59:58;;;;;;;4.70;4.30;;;13.10;99.90;;;;;;5100886;28;20827;-72
2023/03/13 06:02:25;;;;;;;4.80;4.50;;;13.20;99.90;;;;;;5096033;28;20491;-71
2023/03/13 06:04:52;;;;;;;5.10;4.80;;;13.20;99.90;;;;;;5096646;28;20462;-72
2023/03/13 06:07:20;;;;;;;4.37;4.17;;;13.20;99.90;;;;;;5092512;28;20511;-71
2023/03/13 06:09:48;;;;;;;4.80;4.53;;;13.20;99.90;;;;;;5097747;28;20572;-70
2023/03/13 06:12:14;;;;;;;5.33;4.83;;;13.30;99.90;;;;;;5091530;28;20561;-72
2023/03/13 06:14:41;;;;;;;4.60;4.40;;;13.40;99.90;;;;;;5095013;28;20462;-71
2023/03/13 06:17:08;;;;;;;8.80;5.23;;;13.40;99.90;;;;;;5089974;28;20639;-71
2023/03/13 06:19:35;;;;;;;5.10;4.87;;;13.40;99.90;;;;;;5094934;28;20466;-70
2023/03/13 06:22:03;;;;;;;6.47;5.00;;;13.40;99.90;;;;;;5091008;28;20496;-71
2023/03/13 06:24:31;;;;;;;5.13;4.87;;;13.40;99.90;;;;;;5089132;28;20471;-70
2023/03/13 06:26:58;;;;;;;5.00;4.77;;;13.40;99.90;;;;;;5088269;28;20540;-72
2023/03/13 06:29:25;;;;;;;5.47;5.07;;;13.40;99.90;;;;;;5097425;28;20489;-72
2023/03/13 06:31:52;;;;;;;7.30;5.27;;;13.40;99.90;;;;;;5089006;28;20849;-70
2023/03/13 06:34:19;;;;;;;5.03;4.83;;;13.50;99.90;;;;;;5094038;28;20470;-70
2023/03/13 06:36:45;;;;;;;5.27;4.93;;;13.50;99.90;;;;;;5087205;28;20478;-72
2023/03/13 06:39:13;;;;;;;5.87;5.30;;;13.50;99.90;;;;;;5089716;28;20469;-71
2023/03/13 06:41:42;;;;;;;5.57;5.27;;;13.50;99.90;;;;;;5089515;28;20478;-70
2023/03/13 06:44:08;;;;;;;6.53;6.03;;;13.50;99.90;;;;;;5093110;28;20462;-71
2023/03/13 06:46:35;;;;;;;6.50;5.30;;;13.50;99.90;;;;;;5091351;28;20466;-71
2023/03/13 06:49:04;;;;;;;7.30;6.70;;;13.60;99.90;;;;;;5095660;28;20487;-72
2023/03/13 06:51:31;;;;;;;5.97;5.50;;;13.70;99.90;;;;;;5091831;28;20461;-72
2023/03/13 06:53:58;;;;;;;8.20;7.20;;;13.70;99.90;;;;;;5091194;28;20457;-72
2023/03/13 06:56:25;;;;;;;7.10;6.23;;;13.70;99.90;;;;;;5093783;28;20975;-71
2023/03/13 06:58:53;;;;;;;7.07;6.53;;;13.70;99.90;;;;;;5093740;28;20835;-72
2023/03/13 07:01:20;;;;;;;8.20;7.60;;;13.70;99.90;;;;;;5091153;28;20523;-72
2023/03/13 07:03:48;;;;;;;7.33;6.80;;;13.70;99.90;;;;;;5090180;28;20777;-72
2023/03/13 07:06:17;;;;;;;6.50;6.20;;;13.80;99.90;;;;;;5092816;28;20494;-70
2023/03/13 07:08:44;;;;;;;7.73;7.33;;;13.80;99.90;;;;;;5092396;28;20810;-71
2023/03/13 07:11:13;;;;;;;9.33;7.57;;;13.80;99.90;;;;;;5095344;28;20556;-70
2023/03/13 07:13:40;;;;;;;7.80;7.20;;;13.90;99.90;;;;;;5088955;28;20955;-72
2023/03/13 07:16:12;;;;;;;8.70;7.93;;;13.90;99.90;;;;;;5086843;28;20824;-72
2023/03/13 07:18:43;;;;;;;9.80;8.10;;;14.00;99.90;;;;;;5091317;28;20469;-71
2023/03/13 07:21:10;;;;;;;9.90;9.10;;;14.00;99.90;;;;;;5088385;28;22474;-72
2023/03/13 07:23:38;;;;;;;9.23;8.47;;;14.00;99.90;;;;;;5090601;28;20462;-72
2023/03/13 07:26:08;;;;;;;9.53;8.93;;;14.10;99.90;;;;;;5090546;28;20792;-72
2023/03/13 07:28:35;;;;;;;9.67;8.97;;;14.20;99.90;;;;;;5087543;28;21098;-71
2023/03/13 07:31:09;;;;;;;10.63;9.80;;;14.20;99.90;;;;;;5084606;28;21020;-70
2023/03/13 07:33:37;;;;;;;10.37;9.37;;;14.30;99.90;;;;;;5091138;28;20468;-70
2023/03/13 07:36:04;;;;;;;11.27;10.37;;;14.40;99.90;;;;;;5090188;28;20461;-71
2023/03/13 07:38:31;;;;;;;11.00;10.00;;;14.40;99.90;;;;;;5092372;28;20831;-72
2023/03/13 07:40:58;;;;;;;10.97;10.17;;;14.40;99.90;;;;;;5091312;28;20457;-72
2023/03/13 07:43:25;;;;;;;10.30;9.60;;;14.30;99.90;;;;;;5087995;28;20493;-72
2023/03/13 07:45:54;;;;;;;11.40;10.70;;;14.40;99.90;;;;;;5094754;28;20530;-73
2023/03/13 07:48:26;;;;;;;11.87;10.70;;;14.40;99.90;;;;;;5087891;28;20465;-71
2023/03/13 07:50:55;;;;;;;11.60;10.47;;;14.40;99.90;;;;;;5089879;28;20555;-72
2023/03/13 07:53:22;;;;;;;10.97;10.17;;;14.30;99.90;;;;;;5090891;28;20852;-72
2023/03/13 07:55:56;;;;;;;10.87;10.10;;;14.30;99.90;;;;;;5087832;28;20454;-72
2023/03/13 07:58:24;;;;;;;12.20;9.80;;;14.30;99.90;;;;;;5092732;28;20468;-70
2023/03/13 08:00:51;;;;;;;10.73;9.90;;;14.40;99.90;;;;;;5092977;28;20470;-72
2023/03/13 08:03:18;;;;;;;10.43;9.70;;;14.30;99.90;;;;;;5089687;28;20514;-73
2023/03/13 08:05:46;;;;;;;11.57;10.47;;;14.40;99.90;;;;;;5087277;28;20474;-72
2023/03/13 08:08:13;;;;;;;11.07;10.27;;;14.30;99.90;;;;;;5084573;28;20454;-72
2023/03/13 08:10:40;;;;;;;11.67;10.57;;;14.30;99.90;;;;;;5092899;28;20504;-72
2023/03/13 08:13:08;;;;;;;10.60;9.90;;;14.40;99.90;;;;;;5094725;28;20456;-73
2023/03/13 08:15:35;;;;;;;13.20;11.53;;;14.50;99.90;;;;;;5086900;28;20469;-73
2023/03/13 08:18:01;;;;;;;14.23;11.40;;;14.40;99.90;;;;;;5086355;28;20458;-72
2023/03/13 08:20:28;;;;;;;11.53;10.50;;;14.40;99.90;;;;;;5096487;28;20967;-73
2023/03/13 08:22:57;;;;;;;14.50;10.87;;;14.50;99.90;;;;;;5094393;28;20530;-72
2023/03/13 08:25:24;;;;;;;11.23;10.30;;;14.60;99.90;;;;;;5084670;28;20458;-72
2023/03/13 08:27:51;;;;;;;11.40;10.50;;;14.60;99.90;;;;;;5079273;28;20461;-71
2023/03/13 08:30:18;;;;;;;11.83;10.67;;;14.60;99.90;;;;;;5083940;28;20485;-73
2023/03/13 08:32:45;;;;;;;10.80;10.03;;;14.60;99.90;;;;;;5083428;28;20741;-72
2023/03/13 08:35:11;;;;;;;10.57;9.80;;;14.60;99.90;;;;;;5090309;28;20465;-72
2023/03/13 08:37:38;;;;;;;11.30;10.30;;;14.60;99.90;;;;;;5083950;28;20995;-72
2023/03/13 08:40:10;;;;;;;10.80;9.97;;;14.70;99.90;;;;;;5086051;28;20462;-71
2023/03/13 08:42:39;;;;;;;10.00;9.17;;;14.60;99.90;;;;;;5083551;28;20504;-71
2023/03/13 08:45:07;;;;;;;10.53;9.60;;;14.50;99.90;;;;;;5088329;28;20714;-70
2023/03/13 08:47:33;;;;;;;9.57;8.77;;;14.50;99.90;;;;;;5087680;28;20830;-72
2023/03/13 08:50:00;;;;;;;11.10;10.00;;;14.50;99.90;;;;;;5082662;28;20890;-70
2023/03/13 08:52:28;;;;;;;9.40;8.63;;;14.60;99.90;;;;;;5085904;28;20627;-72
2023/03/13 08:54:55;;;;;;;11.00;9.87;;;14.70;99.90;;;;;;5085745;28;20461;-71
2023/03/13 08:57:24;;;;;;;9.80;8.93;;;14.70;99.90;;;;;;5086428;28;20845;-71
2023/03/13 08:59:51;;;;;;;10.30;9.60;;;14.80;99.90;;;;;;5086602;28;20472;-70
2023/03/13 09:02:19;;;;;;;10.10;8.80;;;14.90;99.90;;;;;;5091751;28;21055;-73
2023/03/13 09:04:47;;;;;;;10.13;9.40;;;14.90;99.90;;;;;;5090215;28;20473;-71
2023/03/13 09:07:15;;;;;;;10.07;9.23;;;14.90;99.90;;;;;;5089877;28;20541;-71
2023/03/13 09:09:42;;;;;;;10.03;9.10;;;15.10;99.90;;;;;;5088704;28;20481;-72
2023/03/13 09:12:09;;;;;;;15.43;10.57;;;15.10;99.90;;;;;;5080834;28;20449;-73
2023/03/13 09:14:38;;;;;;;12.23;10.93;;;15.20;99.90;;;;;;5080762;28;20466;-71
2023/03/13 09:17:05;;;;;;;10.47;9.60;;;15.30;99.90;;;;;;5083340;28;20469;-71
2023/03/13 09:19:31;;;;;;;11.33;10.33;;;15.30;99.90;;;;;;5072853;28;20454;-71
2023/03/13 09:21:58;;;;;;;10.90;10.00;;;15.40;99.90;;;;;;5090703;28;20492;-71
2023/03/13 09:24:25;;;;;;;10.83;9.83;;;15.30;99.90;;;;;;5082730;28;20837;-70
2023/03/13 09:26:52;;;;;;;10.43;9.53;;;15.20;99.90;;;;;;5079227;28;20844;-70
2023/03/13 09:29:19;;;;;;;11.37;10.40;;;15.30;99.90;;;;;;5083661;28;20507;-71
2023/03/13 09:31:47;;;;;;;11.30;10.40;;;15.50;99.90;;;;;;5089984;28;20481;-70
2023/03/13 09:34:14;;;;;;;11.40;10.23;;;15.80;99.90;;;;;;5086197;28;20834;-71
2023/03/13 09:36:41;;;;;;;14.33;10.97;;;15.60;99.90;;;;;;5088805;28;20461;-71
2023/03/13 09:39:07;;;;;;;11.27;10.50;;;15.60;99.90;;;;;;5087313;28;20553;-71
2023/03/13 09:41:39;;;;;;;10.50;10.00;;;15.50;99.90;;;;;;5088040;28;20943;-72
2023/03/13 09:44:14;;;;;;;10.87;9.93;;;15.50;99.90;;;;;;5086135;28;20470;-70
2023/03/13 09:46:45;;;;;;;11.33;10.30;;;15.50;99.90;;;;;;5095203;28;20931;-72
2023/03/13 09:49:31;;;;;;;11.60;10.57;;;15.50;99.90;;;;;;5089464;28;20465;-71
2023/03/13 09:52:13;;;;;;;11.63;10.70;;;15.70;99.90;;;;;;5088842;28;20539;-70
2023/03/13 09:54:46;;;;;;;10.83;10.13;;;15.80;99.90;;;;;;5088669;28;20953;-71
2023/03/13 09:57:18;;;;;;;11.10;10.60;;;16.00;99.90;;;;;;5091381;28;20540;-71
2023/03/13 09:59:51;;;;;;;11.73;10.90;;;15.90;99.90;;;;;;5085606;28;20486;-72
2023/03/13 10:02:27;;;;;;;12.13;11.33;;;16.30;99.90;;;;;;5089752;27;20498;-71
2023/03/13 10:05:06;;;;;;;13.17;12.43;;;16.80;99.90;;;;;;5087788;28;20464;-71
2023/03/13 10:07:33;;;;;;;13.30;12.57;;;17.10;99.90;;;;;;5089868;28;20460;-70
2023/03/13 10:10:01;;;;;;;13.00;12.40;;;17.50;99.90;;;;;;5089020;28;20480;-70
2023/03/13 10:12:29;;;;;;;13.77;13.07;;;17.10;99.90;;;;;;5092627;28;20466;-71
2023/03/13 10:15:18;;;;;;;13.90;13.13;;;17.50;99.90;;;;;;5089540;28;20465;-71
2023/03/13 10:17:45;;;;;;;14.30;13.20;;;17.70;99.90;;;;;;5093110;28;20511;-71
2023/03/13 10:20:23;;;;;;;15.13;13.40;;;17.20;99.90;;;;;;5088831;28;20842;-70
2023/03/13 10:22:55;;;;;;;13.40;12.60;;;17.10;99.90;;;;;;5088556;28;20513;-72
2023/03/13 10:25:29;;;;;;;13.87;13.17;;;17.20;99.90;;;;;;5088460;28;20458;-72
2023/03/13 10:27:56;;;;;;;13.30;12.57;;;17.30;99.90;;;;;;5091393;28;20463;-70
2023/03/13 10:30:26;;;;;;;14.10;13.30;;;17.30;99.90;;;;;;5094293;28;20476;-71
2023/03/13 10:32:57;;;;;;;13.90;13.20;;;17.20;99.90;;;;;;5089321;28;20473;-71
2023/03/13 10:35:33;;;;;;;14.10;13.30;;;17.20;99.90;;;;;;5090165;27;21096;-71
2023/03/13 10:38:04;;;;;;;14.37;13.47;;;17.20;99.90;;;;;;5086756;28;20466;-72
2023/03/13 10:40:32;;;;;;;13.80;13.07;;;17.40;99.90;;;;;;5086480;28;20469;-72
2023/03/13 10:43:04;;;;;;;14.00;13.30;;;17.50;99.90;;;;;;5086078;28;20949;-71
2023/03/13 10:45:36;;;;;;;14.20;13.50;;;17.80;99.90;;;;;;5093523;28;20460;-71
2023/03/13 10:48:11;;;;;;;15.07;14.10;;;18.10;99.90;;;;;;5088611;28;20474;-72
2023/03/13 10:50:43;;;;;;;14.90;13.80;;;18.10;99.90;;;;;;5091242;28;21100;-73
2023/03/13 10:53:24;;;;;;;14.97;14.17;;;17.70;99.90;;;;;;5089429;28;20801;-71
2023/03/13 10:55:53;;;;;;;15.63;14.50;;;17.50;99.90;;;;;;5086729;28;20493;-72
2023/03/13 10:58:24;;;;;;;14.87;13.83;;;17.20;99.90;;;;;;5086935;28;20596;-72
2023/03/13 11:00:50;;;;;;;14.37;13.67;;;17.00;99.90;;;;;;5091035;28;20889;-71
2023/03/13 11:03:20;;;;;;;14.63;13.63;;;17.10;99.90;;;;;;5091414;28;20578;-72
2023/03/13 11:05:58;;;;;;;14.30;13.50;;;17.30;99.90;;;;;;5091044;28;20764;-73
2023/03/13 11:08:27;;;;;;;14.33;13.50;;;17.20;99.90;;;;;;5088010;28;20462;-71
2023/03/13 11:10:59;;;;;;;15.13;14.10;;;17.40;99.90;;;;;;5083085;28;21246;-71
2023/03/13 11:13:33;;;;;;;14.23;13.53;;;17.70;99.90;;;;;;5084147;28;20692;-71
2023/03/13 11:16:08;;;;;;;14.40;13.70;;;17.90;99.90;;;;;;5081435;28;20456;-72
2023/03/13 11:18:43;;;;;;;14.60;13.90;;;18.30;99.90;;;;;;5092414;28;20465;-72
2023/03/13 11:21:19;;;;;;;15.07;14.23;;;18.50;99.90;;;;;;5086699;28;20462;-73
2023/03/13 11:23:54;;;;;;;14.60;13.90;;;18.50;99.90;;;;;;5088732;28;20461;-72
2023/03/13 11:26:28;;;;;;;15.10;14.37;;;18.70;99.90;;;;;;5084461;28;20464;-73
2023/03/13 11:29:00;;;;;;;14.70;13.90;;;18.70;99.90;;;;;;5088121;28;20793;-72
2023/03/13 11:31:31;;;;;;;14.90;14.10;;;18.60;99.90;;;;;;5080828;28;20494;-71
2023/03/13 11:34:05;;;;;;;14.70;14.00;;;18.70;99.90;;;;;;5076350;28;20462;-71
2023/03/13 11:36:38;;;;;;;14.77;14.07;;;18.70;99.90;;;;;;5085971;28;20868;-71
2023/03/13 11:39:28;;;;;;;15.03;14.13;;;18.70;99.90;;;;;;5083885;28;20626;-72
2023/03/13 11:42:00;;;;;;;14.20;13.50;;;18.60;99.90;;;;;;5086754;28;20485;-72
2023/03/13 11:44:37;;;;;;;14.33;13.63;;;18.50;99.90;;;;;;5089679;28;20555;-71
2023/03/13 11:47:28;;;;;;;15.30;14.00;;;18.60;99.90;;;;;;5085191;28;20937;-72
2023/03/13 11:50:04;;;;;;;14.67;13.97;;;18.70;99.90;;;;;;5083611;28;20861;-71
2023/03/13 11:52:47;;;;;;;14.40;13.60;;;18.00;99.90;;;;;;5086105;28;21010;-72
2023/03/13 11:55:29;;;;;;;14.77;14.07;;;17.80;99.90;;;;;;5090016;28;20472;-72
2023/03/13 11:58:09;;;;;;;15.10;14.23;;;18.30;99.90;;;;;;5090822;28;20845;-74
2023/03/13 12:00:40;;;;;;;15.00;14.20;;;18.30;99.90;;;;;;5081802;28;20469;-72
2023/03/13 12:03:16;;;;;;;15.03;14.33;;;18.80;99.90;;;;;;5082946;28;20470;-71
2023/03/13 12:05:49;;;;;;;15.40;14.60;;;19.00;99.90;;;;;;5092700;28;20453;-72
2023/03/13 12:08:21;;;;;;;15.80;15.00;;;18.70;99.90;;;;;;5083953;28;20487;-71
2023/03/13 12:10:56;;;;;;;16.00;15.10;;;17.90;99.90;;;;;;5088716;28;21086;-71
2023/03/13 12:13:28;;;;;;;15.20;14.20;;;17.70;99.90;;;;;;5082288;28;20825;-71
2023/03/13 12:15:58;;;;;;;15.30;14.30;;;17.40;99.90;;;;;;5086201;28;20454;-70
2023/03/13 12:18:32;;;;;;;15.03;14.23;;;17.30;99.90;;;;;;5088558;28;20888;-70
2023/03/13 12:21:09;;;;;;;14.83;14.13;;;17.40;99.90;;;;;;5084580;28;20810;-72
2023/03/13 12:23:45;;;;;;;14.03;13.13;;;17.30;99.90;;;;;;5087723;28;20470;-70
2023/03/13 12:26:15;;;;;;;15.10;14.30;;;17.80;99.90;;;;;;5083374;28;20859;-72
2023/03/13 12:28:45;;;;;;;15.10;14.40;;;18.00;99.90;;;;;;5082126;28;20458;-71
2023/03/13 12:31:21;;;;;;;15.30;14.50;;;18.00;99.90;;;;;;5084730;28;20482;-71
2023/03/13 12:33:53;;;;;;;14.60;13.80;;;18.10;99.90;;;;;;5084377;28;20916;-71
2023/03/13 12:36:28;;;;;;;15.40;14.53;;;18.30;99.90;;;;;;5093514;28;20474;-72
2023/03/13 12:39:02;;;;;;;16.00;15.10;;;18.90;99.90;;;;;;5089360;28;20748;-71
2023/03/13 12:41:37;;;;;;;15.10;14.40;;;19.40;99.90;;;;;;5085864;28;20565;-71
2023/03/13 12:44:08;;;;;;;15.20;14.50;;;19.20;99.90;;;;;;5087588;28;20461;-70
2023/03/13 12:46:40;;;;;;;15.53;14.73;;;19.10;99.90;;;;;;5085312;28;20468;-69